Time;durP1;ratioP1;P1;durP2;ratioP2;P2;SDS_P1;SDS_P2;PMS_P1;PMS_P2;Temp;Humidity;BMP_temperature;BMP_pressure;BME280_temperature;BME280_humidity;BME280_pressure;Samples;Min_cycle;Max_cycle;Signal;HPM_P1;HPM_P2
2023/07/25 00:00:27;;;;;;;6.53;3.60;;;;;;;;;;5134746;27;20515;-67
2023/07/25 00:02:54;;;;;;;5.20;3.63;;;;;;;;;;5134152;27;20434;-68
2023/07/25 00:05:23;;;;;;;5.57;3.47;;;;;;;;;;5134227;27;20517;-68
2023/07/25 00:07:50;;;;;;;4.67;3.40;;;;;;;;;;5134505;27;20504;-68
2023/07/25 00:10:18;;;;;;;6.97;3.50;;;;;;;;;;5134699;27;20514;-67
2023/07/25 00:12:45;;;;;;;4.07;3.40;;;;;;;;;;5134306;27;20962;-68
2023/07/25 00:15:13;;;;;;;8.80;3.23;;;;;;;;;;5135028;27;20480;-67
2023/07/25 00:17:40;;;;;;;4.63;3.40;;;;;;;;;;5134769;27;20523;-68
2023/07/25 00:20:08;;;;;;;6.13;3.70;;;;;;;;;;5134125;27;20921;-67
2023/07/25 00:22:37;;;;;;;5.23;3.40;;;;;;;;;;5134304;27;20445;-66
2023/07/25 00:25:04;;;;;;;7.53;4.10;;;;;;;;;;5134010;27;20973;-65
2023/07/25 00:27:31;;;;;;;10.40;4.20;;;;;;;;;;5134182;27;20812;-65
2023/07/25 00:29:59;;;;;;;7.27;4.10;;;;;;;;;;5134083;27;20871;-65
2023/07/25 00:32:26;;;;;;;4.10;3.70;;;;;;;;;;5134165;27;20442;-65
2023/07/25 00:34:53;;;;;;;6.70;3.73;;;;;;;;;;5134127;27;20476;-65
2023/07/25 00:37:20;;;;;;;4.63;3.57;;;;;;;;;;5134140;27;20516;-66
2023/07/25 00:39:53;;;;;;;5.20;3.70;;;;;;;;;;5134168;27;20441;-66
2023/07/25 00:42:20;;;;;;;7.00;4.30;;;;;;;;;;5134581;27;20794;-65
2023/07/25 00:44:47;;;;;;;7.17;4.10;;;;;;;;;;5133645;27;20480;-66
2023/07/25 00:47:15;;;;;;;7.63;3.33;;;;;;;;;;5135283;27;20449;-65
2023/07/25 00:49:43;;;;;;;9.43;4.50;;;;;;;;;;5138162;27;20798;-65
2023/07/25 00:52:10;;;;;;;7.60;4.13;;;;;;;;;;5138713;27;20439;-65
2023/07/25 00:54:39;;;;;;;9.50;4.00;;;;;;;;;;5138163;27;20857;-65
2023/07/25 00:57:08;;;;;;;11.53;4.57;;;;;;;;;;5137667;27;20476;-66
2023/07/25 00:59:35;;;;;;;8.13;4.20;;;;;;;;;;5137389;27;20824;-65
2023/07/25 01:02:02;;;;;;;5.43;3.70;;;;;;;;;;5137774;27;20446;-65
2023/07/25 01:04:29;;;;;;;9.60;4.50;;;;;;;;;;5137787;27;20828;-66
2023/07/25 01:06:58;;;;;;;6.50;3.60;;;;;;;;;;5137396;27;20524;-65
2023/07/25 01:09:38;;;;;;;8.07;4.40;;;;;;;;;;5137705;27;20469;-65
2023/07/25 01:12:06;;;;;;;9.30;4.67;;;;;;;;;;5137913;27;20445;-65
2023/07/25 01:14:34;;;;;;;12.53;4.13;;;;;;;;;;5137236;27;20440;-66
2023/07/25 01:17:04;;;;;;;7.87;4.10;;;;;;;;;;5137922;27;20464;-65
2023/07/25 01:19:33;;;;;;;5.83;3.80;;;;;;;;;;5137209;27;20445;-66
2023/07/25 01:22:00;;;;;;;10.37;4.77;;;;;;;;;;5138185;27;20437;-66
2023/07/25 01:24:29;;;;;;;6.17;4.40;;;;;;;;;;5137309;27;20831;-65
2023/07/25 01:26:57;;;;;;;8.73;4.43;;;;;;;;;;5137432;27;20804;-65
2023/07/25 01:29:24;;;;;;;9.07;5.00;;;;;;;;;;5137035;27;20847;-65
2023/07/25 01:31:51;;;;;;;5.70;3.90;;;;;;;;;;5136986;27;20480;-65
2023/07/25 01:34:18;;;;;;;8.43;4.80;;;;;;;;;;5136891;27;20456;-66
2023/07/25 01:36:46;;;;;;;6.30;4.40;;;;;;;;;;5136941;27;20550;-65
2023/07/25 01:39:13;;;;;;;5.33;4.07;;;;;;;;;;5136870;27;20508;-66
2023/07/25 01:41:42;;;;;;;6.10;4.40;;;;;;;;;;5136913;27;20479;-66
2023/07/25 01:44:09;;;;;;;19.70;5.87;;;;;;;;;;5136691;27;20512;-65
2023/07/25 01:46:37;;;;;;;10.47;5.37;;;;;;;;;;5136693;27;20525;-66
2023/07/25 01:49:04;;;;;;;9.90;4.20;;;;;;;;;;5136507;27;20949;-67
2023/07/25 01:51:31;;;;;;;11.37;4.80;;;;;;;;;;5136927;27;20829;-65
2023/07/25 01:54:00;;;;;;;5.97;4.40;;;;;;;;;;5136838;27;20485;-66
2023/07/25 01:56:27;;;;;;;13.20;4.60;;;;;;;;;;5137327;27;20488;-65
2023/07/25 01:58:55;;;;;;;7.53;5.03;;;;;;;;;;5135233;27;20941;-65
2023/07/25 02:01:23;;;;;;;7.30;4.80;;;;;;;;;;5136574;27;20513;-65
2023/07/25 02:03:50;;;;;;;8.47;4.57;;;;;;;;;;5137116;27;20485;-65
2023/07/25 02:06:17;;;;;;;9.33;5.00;;;;;;;;;;5136335;27;20449;-65
2023/07/25 02:08:44;;;;;;;7.13;4.17;;;;;;;;;;5136221;27;20446;-65
2023/07/25 02:11:11;;;;;;;9.30;5.50;;;;;;;;;;5136246;27;20944;-65
2023/07/25 02:13:39;;;;;;;10.77;4.97;;;;;;;;;;5136280;27;20441;-66
2023/07/25 02:16:07;;;;;;;6.07;4.47;;;;;;;;;;5136191;27;20825;-66
2023/07/25 02:18:34;;;;;;;8.80;4.70;;;;;;;;;;5136870;27;20540;-65
2023/07/25 02:21:02;;;;;;;8.43;5.70;;;;;;;;;;5136365;27;20492;-65
2023/07/25 02:23:29;;;;;;;13.83;4.70;;;;;;;;;;5136848;27;20524;-65
2023/07/25 02:25:56;;;;;;;8.70;5.07;;;;;;;;;;5136159;27;20477;-65
2023/07/25 02:28:23;;;;;;;9.17;5.70;;;;;;;;;;5136215;27;20816;-65
2023/07/25 02:30:51;;;;;;;10.13;5.20;;;;;;;;;;5136043;27;20433;-66
2023/07/25 02:33:19;;;;;;;8.53;4.60;;;;;;;;;;5135797;27;20445;-65
2023/07/25 02:35:47;;;;;;;7.07;5.23;;;;;;;;;;5135917;27;20536;-65
2023/07/25 02:38:14;;;;;;;12.10;5.20;;;;;;;;;;5137034;27;20443;-66
2023/07/25 02:40:41;;;;;;;10.27;6.30;;;;;;;;;;5135588;27;20452;-66
2023/07/25 02:43:08;;;;;;;10.50;5.80;;;;;;;;;;5135961;27;20535;-66
2023/07/25 02:45:36;;;;;;;6.97;5.67;;;;;;;;;;5135438;27;20595;-65
2023/07/25 02:48:03;;;;;;;9.87;5.43;;;;;;;;;;5135771;27;20467;-65
2023/07/25 02:50:32;;;;;;;7.97;6.13;;;;;;;;;;5135362;27;20483;-66
2023/07/25 02:52:59;;;;;;;10.70;5.50;;;;;;;;;;5135461;27;20532;-66
2023/07/25 02:55:26;;;;;;;8.47;5.83;;;;;;;;;;5135731;27;20448;-65
2023/07/25 02:57:53;;;;;;;10.37;6.20;;;;;;;;;;5135384;27;20547;-65
2023/07/25 03:00:20;;;;;;;8.93;6.30;;;;;;;;;;5135167;27;20467;-65
2023/07/25 03:02:48;;;;;;;7.60;4.93;;;;;;;;;;5135670;27;20519;-65
2023/07/25 03:05:15;;;;;;;11.57;5.57;;;;;;;;;;5134977;27;20525;-65
2023/07/25 03:07:44;;;;;;;12.40;6.63;;;;;;;;;;5135660;27;20442;-65
2023/07/25 03:10:11;;;;;;;6.00;5.50;;;;;;;;;;5134963;27;20930;-65
2023/07/25 03:12:39;;;;;;;14.57;6.20;;;;;;;;;;5135050;27;20953;-65
2023/07/25 03:15:06;;;;;;;11.83;6.03;;;;;;;;;;5134962;27;20487;-65
2023/07/25 03:17:34;;;;;;;10.30;7.70;;;;;;;;;;5135220;27;20984;-66
2023/07/25 03:20:01;;;;;;;15.73;6.57;;;;;;;;;;5135107;27;20501;-66
2023/07/25 03:22:28;;;;;;;9.00;5.67;;;;;;;;;;5135055;27;20449;-65
2023/07/25 03:24:57;;;;;;;12.30;6.20;;;;;;;;;;5134662;27;20510;-67
2023/07/25 03:27:24;;;;;;;11.03;6.10;;;;;;;;;;5134634;27;20484;-66
2023/07/25 03:29:51;;;;;;;10.10;6.47;;;;;;;;;;5135054;27;20540;-65
2023/07/25 03:32:18;;;;;;;9.63;6.30;;;;;;;;;;5134991;27;21014;-65
2023/07/25 03:34:46;;;;;;;7.43;5.30;;;;;;;;;;5134689;27;20543;-65
2023/07/25 03:37:13;;;;;;;12.33;6.57;;;;;;;;;;5134848;27;20534;-66
2023/07/25 03:39:40;;;;;;;12.80;5.67;;;;;;;;;;5134532;27;20958;-66
2023/07/25 03:42:09;;;;;;;12.90;5.97;;;;;;;;;;5134745;27;20443;-65
2023/07/25 03:44:36;;;;;;;8.30;6.67;;;;;;;;;;5134394;27;20448;-65
2023/07/25 03:47:03;;;;;;;9.77;6.30;;;;;;;;;;5134413;27;20444;-66
2023/07/25 03:49:30;;;;;;;13.40;5.60;;;;;;;;;;5133767;27;20453;-65
2023/07/25 03:51:58;;;;;;;9.43;6.53;;;;;;;;;;5133985;27;20444;-65
2023/07/25 03:54:25;;;;;;;15.60;7.07;;;;;;;;;;5134159;27;20439;-65
2023/07/25 03:56:52;;;;;;;12.70;6.20;;;;;;;;;;5134544;27;20532;-66
2023/07/25 03:59:21;;;;;;;16.73;6.03;;;;;;;;;;5134610;27;20473;-65
2023/07/25 04:01:48;;;;;;;6.80;5.80;;;;;;;;;;5134093;27;20933;-66
2023/07/25 04:04:15;;;;;;;7.70;5.80;;;;;;;;;;5134484;27;20500;-66
2023/07/25 04:06:42;;;;;;;12.63;5.77;;;;;;;;;;5134081;27;20483;-65
2023/07/25 04:09:10;;;;;;;13.87;6.27;;;;;;;;;;5134390;27;20539;-65
2023/07/25 04:11:37;;;;;;;9.57;5.93;;;;;;;;;;5133897;27;20435;-65
2023/07/25 04:14:04;;;;;;;10.50;5.90;;;;;;;;;;5133935;27;20925;-65
2023/07/25 04:16:33;;;;;;;9.60;5.70;;;;;;;;;;5134285;27;20948;-65
2023/07/25 04:19:00;;;;;;;20.27;6.90;;;;;;;;;;5133827;28;20438;-66
2023/07/25 04:21:27;;;;;;;12.07;6.03;;;;;;;;;;5135527;27;20446;-65
2023/07/25 04:23:54;;;;;;;13.90;5.83;;;;;;;;;;5141148;27;20438;-65
2023/07/25 04:26:21;;;;;;;7.73;4.90;;;;;;;;;;5140613;27;20478;-63
2023/07/25 04:28:49;;;;;;;10.00;6.10;;;;;;;;;;5141770;27;20454;-64
2023/07/25 04:31:16;;;;;;;12.27;6.50;;;;;;;;;;5140896;27;20439;-64
2023/07/25 04:33:45;;;;;;;11.43;6.30;;;;;;;;;;5140996;27;20568;-64
2023/07/25 04:36:12;;;;;;;7.80;5.97;;;;;;;;;;5141280;27;20449;-64
2023/07/25 04:38:40;;;;;;;11.57;5.97;;;;;;;;;;5141128;27;20449;-64
2023/07/25 04:41:07;;;;;;;10.67;6.20;;;;;;;;;;5140746;27;20489;-64
2023/07/25 04:43:34;;;;;;;9.70;6.00;;;;;;;;;;5140552;27;20442;-64
2023/07/25 04:46:01;;;;;;;9.67;5.80;;;;;;;;;;5140403;27;20472;-64
2023/07/25 04:48:29;;;;;;;11.40;6.23;;;;;;;;;;5140645;27;20439;-64
2023/07/25 04:50:57;;;;;;;9.27;6.77;;;;;;;;;;5140839;27;20439;-63
2023/07/25 04:53:25;;;;;;;7.67;5.80;;;;;;;;;;5140630;27;20448;-63
2023/07/25 04:55:52;;;;;;;11.70;5.67;;;;;;;;;;5140830;27;20453;-63
2023/07/25 04:58:19;;;;;;;9.37;6.43;;;;;;;;;;5140669;27;20447;-64
2023/07/25 05:00:46;;;;;;;5.90;5.10;;;;;;;;;;5140795;27;20468;-64
2023/07/25 05:03:13;;;;;;;7.20;5.00;;;;;;;;;;5140757;27;20432;-64
2023/07/25 05:05:40;;;;;;;12.83;5.60;;;;;;;;;;5140634;27;20475;-64
2023/07/25 05:08:10;;;;;;;6.83;6.23;;;;;;;;;;5140579;27;20493;-63
2023/07/25 05:10:37;;;;;;;7.67;5.90;;;;;;;;;;5141157;27;20436;-63
2023/07/25 05:13:04;;;;;;;12.27;6.00;;;;;;;;;;5140490;27;20535;-64
2023/07/25 05:15:32;;;;;;;9.53;5.30;;;;;;;;;;5140296;27;20439;-63
2023/07/25 05:17:59;;;;;;;11.03;6.33;;;;;;;;;;5140049;27;20451;-64
2023/07/25 05:20:26;;;;;;;11.03;5.37;;;;;;;;;;5140105;27;20447;-64
2023/07/25 05:22:53;;;;;;;14.63;6.10;;;;;;;;;;5140505;27;20439;-63
2023/07/25 05:25:22;;;;;;;9.40;6.00;;;;;;;;;;5140526;27;20484;-63
2023/07/25 05:27:49;;;;;;;7.40;5.60;;;;;;;;;;5140118;27;20447;-64
2023/07/25 05:30:16;;;;;;;9.47;5.80;;;;;;;;;;5140264;27;20952;-63
2023/07/25 05:32:43;;;;;;;13.73;5.83;;;;;;;;;;5139473;27;20435;-62
2023/07/25 05:35:10;;;;;;;10.67;5.83;;;;;;;;;;5136467;27;20436;-63
2023/07/25 05:37:38;;;;;;;9.17;5.40;;;;;;;;;;5137119;27;20796;-63
2023/07/25 05:40:06;;;;;;;11.73;5.50;;;;;;;;;;5137227;27;20444;-63
2023/07/25 05:42:34;;;;;;;6.73;4.60;;;;;;;;;;5136966;27;20938;-63
2023/07/25 05:45:02;;;;;;;10.77;5.60;;;;;;;;;;5137047;27;20911;-63
2023/07/25 05:47:29;;;;;;;8.30;4.37;;;;;;;;;;5136882;27;20458;-64
2023/07/25 05:49:56;;;;;;;8.97;4.90;;;;;;;;;;5136765;27;20459;-63
2023/07/25 05:52:24;;;;;;;9.80;5.53;;;;;;;;;;5137272;27;20440;-63
2023/07/25 05:54:52;;;;;;;9.90;4.97;;;;;;;;;;5137414;27;20454;-63
2023/07/25 05:57:19;;;;;;;4.87;4.37;;;;;;;;;;5136634;27;20448;-63
2023/07/25 05:59:47;;;;;;;5.90;4.13;;;;;;;;;;5136678;27;20471;-64
2023/07/25 06:02:16;;;;;;;9.93;5.07;;;;;;;;;;5136619;27;20444;-64
2023/07/25 06:04:45;;;;;;;9.53;4.53;;;;;;;;;;5136308;27;20445;-63
2023/07/25 06:07:13;;;;;;;7.90;4.23;;;;;;;;;;5136452;27;20484;-64
2023/07/25 06:09:40;;;;;;;8.50;4.43;;;;;;;;;;5136228;27;20476;-63
2023/07/25 06:12:08;;;;;;;6.90;4.50;;;;;;;;;;5136430;27;20464;-63
2023/07/25 06:14:35;;;;;;;10.53;4.10;;;;;;;;;;5136225;27;20436;-63
2023/07/25 06:17:04;;;;;;;8.23;4.80;;;;;;;;;;5136810;27;20440;-63
2023/07/25 06:19:31;;;;;;;5.97;3.60;;;;;;;;;;5136168;27;20444;-64
2023/07/25 06:21:59;;;;;;;9.90;4.10;;;;;;;;;;5136128;27;20455;-63
2023/07/25 06:24:26;;;;;;;6.90;4.43;;;;;;;;;;5136287;27;20479;-63
2023/07/25 06:26:53;;;;;;;7.20;4.23;;;;;;;;;;5136601;27;20852;-63
2023/07/25 06:29:20;;;;;;;8.43;4.73;;;;;;;;;;5136066;27;20805;-63
2023/07/25 06:31:47;;;;;;;7.87;4.30;;;;;;;;;;5136003;27;20434;-63
2023/07/25 06:34:16;;;;;;;10.53;3.87;;;;;;;;;;5136331;27;20467;-63
2023/07/25 06:36:43;;;;;;;10.30;4.80;;;;;;;;;;5135813;27;20525;-63
2023/07/25 06:39:10;;;;;;;8.03;4.37;;;;;;;;;;5136260;27;20456;-63
2023/07/25 06:41:37;;;;;;;8.80;4.33;;;;;;;;;;5135590;27;20442;-64
2023/07/25 06:44:05;;;;;;;11.43;5.00;;;;;;;;;;5135410;27;20958;-63
2023/07/25 06:46:32;;;;;;;6.27;3.97;;;;;;;;;;5135558;27;20488;-63
2023/07/25 06:48:59;;;;;;;7.20;2.73;;;;;;;;;;5135613;27;20441;-63
2023/07/25 06:51:28;;;;;;;5.23;2.83;;;;;;;;;;5135719;27;20447;-63
2023/07/25 06:53:55;;;;;;;11.43;3.53;;;;;;;;;;5135336;27;20871;-64
2023/07/25 06:56:22;;;;;;;11.50;3.50;;;;;;;;;;5135896;27;20449;-64
2023/07/25 06:58:49;;;;;;;11.47;4.53;;;;;;;;;;5135310;27;20504;-64
2023/07/25 07:01:16;;;;;;;5.10;3.57;;;;;;;;;;5135420;27;20469;-63
2023/07/25 07:03:43;;;;;;;4.80;3.23;;;;;;;;;;5135191;27;20875;-63
2023/07/25 07:06:11;;;;;;;7.00;3.50;;;;;;;;;;5135533;27;20823;-63
2023/07/25 07:08:39;;;;;;;13.10;3.80;;;;;;;;;;5135606;27;20438;-64
2023/07/25 07:11:06;;;;;;;9.00;3.20;;;;;;;;;;5135049;27;20445;-63
2023/07/25 07:13:33;;;;;;;7.93;3.40;;;;;;;;;;5135581;27;20920;-63
2023/07/25 07:16:01;;;;;;;4.60;2.83;;;;;;;;;;5135384;27;20439;-63
2023/07/25 07:18:28;;;;;;;7.73;3.70;;;;;;;;;;5135592;27;20879;-63
2023/07/25 07:20:55;;;;;;;10.80;3.13;;;;;;;;;;5135559;27;20436;-63
2023/07/25 07:23:22;;;;;;;8.47;3.50;;;;;;;;;;5135398;27;20441;-63
2023/07/25 07:25:52;;;;;;;9.67;4.30;;;;;;;;;;5135377;27;20441;-63
2023/07/25 07:28:19;;;;;;;7.10;3.43;;;;;;;;;;5134676;27;20447;-64
2023/07/25 07:30:49;;;;;;;7.83;3.83;;;;;;;;;;5134994;27;20441;-63
2023/07/25 07:33:17;;;;;;;7.10;3.23;;;;;;;;;;5134944;27;20494;-64
2023/07/25 07:35:44;;;;;;;6.13;3.40;;;;;;;;;;5134911;27;20652;-63
2023/07/25 07:38:11;;;;;;;5.93;3.10;;;;;;;;;;5135599;27;20448;-63
2023/07/25 07:40:38;;;;;;;7.90;2.73;;;;;;;;;;5134809;27;20439;-63
2023/07/25 07:43:07;;;;;;;5.30;3.23;;;;;;;;;;5134788;27;20437;-64
2023/07/25 07:45:34;;;;;;;6.10;3.03;;;;;;;;;;5134670;27;20529;-64
2023/07/25 07:48:01;;;;;;;4.63;2.57;;;;;;;;;;5134628;27;20476;-63
2023/07/25 07:50:32;;;;;;;17.63;3.67;;;;;;;;;;5134913;27;20439;-63
2023/07/25 07:53:00;;;;;;;5.23;2.40;;;;;;;;;;5136265;27;20430;-63
2023/07/25 07:55:27;;;;;;;13.03;3.00;;;;;;;;;;5136112;27;20437;-63
2023/07/25 07:57:55;;;;;;;4.83;2.43;;;;;;;;;;5135346;27;20463;-63
2023/07/25 08:00:24;;;;;;;4.13;3.00;;;;;;;;;;5136378;27;20480;-63
2023/07/25 08:02:51;;;;;;;10.60;3.37;;;;;;;;;;5135856;27;20443;-64
2023/07/25 08:05:19;;;;;;;5.07;3.03;;;;;;;;;;5135520;27;20437;-63
2023/07/25 08:07:46;;;;;;;5.83;2.47;;;;;;;;;;5135974;27;20477;-63
2023/07/25 08:10:13;;;;;;;5.27;2.53;;;;;;;;;;5136077;27;20433;-63
2023/07/25 08:12:40;;;;;;;3.40;2.30;;;;;;;;;;5134818;27;20530;-64
2023/07/25 08:15:08;;;;;;;5.63;2.83;;;;;;;;;;5134434;27;20433;-63
2023/07/25 08:17:36;;;;;;;8.37;2.93;;;;;;;;;;5135848;27;20528;-64
2023/07/25 08:20:04;;;;;;;5.00;2.83;;;;;;;;;;5134531;28;20440;-64
2023/07/25 08:22:31;;;;;;;3.40;2.57;;;;;;;;;;5134386;28;20437;-64
2023/07/25 08:24:58;;;;;;;8.50;2.20;;;;;;;;;;5134170;28;20477;-64
2023/07/25 08:27:26;;;;;;;7.83;3.03;;;;;;;;;;5134252;28;20489;-64
2023/07/25 08:29:53;;;;;;;3.63;2.80;;;;;;;;;;5135584;28;20445;-64
2023/07/25 08:32:20;;;;;;;6.40;2.47;;;;;;;;;;5133917;28;20445;-64
2023/07/25 08:34:49;;;;;;;7.57;2.77;;;;;;;;;;5133873;28;20524;-64
2023/07/25 08:37:16;;;;;;;4.53;2.57;;;;;;;;;;5133749;28;20440;-64
2023/07/25 08:39:43;;;;;;;7.50;2.70;;;;;;;;;;5133894;28;20449;-64
2023/07/25 08:42:12;;;;;;;3.23;2.40;;;;;;;;;;5133580;28;20452;-64
2023/07/25 08:44:41;;;;;;;5.93;2.90;;;;;;;;;;5133977;28;20439;-64
2023/07/25 08:47:11;;;;;;;7.30;3.10;;;;;;;;;;5133970;28;20477;-64
2023/07/25 08:49:40;;;;;;;6.80;2.60;;;;;;;;;;5134037;28;20522;-63
2023/07/25 08:52:09;;;;;;;4.23;2.20;;;;;;;;;;5133919;28;20441;-63
2023/07/25 08:54:37;;;;;;;8.97;2.73;;;;;;;;;;5133862;28;20449;-64
2023/07/25 08:57:04;;;;;;;5.27;2.90;;;;;;;;;;5134452;28;20453;-63
2023/07/25 08:59:32;;;;;;;9.27;3.17;;;;;;;;;;5133908;28;20511;-65
2023/07/25 09:01:59;;;;;;;8.10;2.90;;;;;;;;;;5133817;28;20444;-63
2023/07/25 09:04:27;;;;;;;9.73;3.07;;;;;;;;;;5134037;28;20438;-63
2023/07/25 09:06:54;;;;;;;6.90;2.70;;;;;;;;;;5133496;28;20481;-63
2023/07/25 09:09:23;;;;;;;4.77;2.40;;;;;;;;;;5136894;27;20445;-63
2023/07/25 09:11:50;;;;;;;4.83;2.70;;;;;;;;;;5137856;27;20461;-64
2023/07/25 09:14:18;;;;;;;9.00;3.83;;;;;;;;;;5137586;27;20440;-64
2023/07/25 09:16:45;;;;;;;8.83;3.10;;;;;;;;;;5137268;27;20449;-63
2023/07/25 09:19:13;;;;;;;9.80;3.73;;;;;;;;;;5137664;27;20460;-64
2023/07/25 09:21:46;;;;;;;6.77;2.83;;;;;;;;;;5137482;27;20440;-64
2023/07/25 09:24:14;;;;;;;3.50;2.40;;;;;;;;;;5137297;27;20953;-64
2023/07/25 09:26:48;;;;;;;8.93;2.30;;;;;;;;;;5137343;27;20480;-63
2023/07/25 09:29:16;;;;;;;8.80;2.87;;;;;;;;;;5137210;27;20442;-63
2023/07/25 09:31:44;;;;;;;5.80;2.73;;;;;;;;;;5137333;27;20448;-63
2023/07/25 09:34:15;;;;;;;5.87;2.60;;;;;;;;;;5137286;27;20979;-63
2023/07/25 09:36:45;;;;;;;7.67;2.57;;;;;;;;;;5137430;27;20430;-63
2023/07/25 09:39:13;;;;;;;9.90;2.70;;;;;;;;;;5138725;27;20434;-63
2023/07/25 09:41:40;;;;;;;3.30;2.40;;;;;;;;;;5137070;27;20528;-63
2023/07/25 09:44:10;;;;;;;6.40;2.73;;;;;;;;;;5137192;27;20437;-63
2023/07/25 09:46:37;;;;;;;5.20;2.83;;;;;;;;;;5136878;27;20456;-63
2023/07/25 09:49:04;;;;;;;8.43;2.73;;;;;;;;;;5136790;27;20440;-63
2023/07/25 09:51:32;;;;;;;4.43;2.60;;;;;;;;;;5137116;27;20442;-63
2023/07/25 09:53:59;;;;;;;11.23;2.67;;;;;;;;;;5136851;27;20476;-63
2023/07/25 09:56:27;;;;;;;4.40;1.87;;;;;;;;;;5136423;27;20455;-63
2023/07/25 09:58:54;;;;;;;4.37;2.37;;;;;;;;;;5136850;27;20825;-63
2023/07/25 10:01:23;;;;;;;4.30;2.47;;;;;;;;;;5136609;27;20999;-63
2023/07/25 10:03:51;;;;;;;9.23;2.97;;;;;;;;;;5137308;27;20441;-63
2023/07/25 10:06:19;;;;;;;7.23;2.13;;;;;;;;;;5136644;27;20449;-63
2023/07/25 10:08:46;;;;;;;6.07;2.40;;;;;;;;;;5136777;27;20481;-63
2023/07/25 10:11:13;;;;;;;6.13;2.90;;;;;;;;;;5136182;27;20448;-63
2023/07/25 10:13:42;;;;;;;5.30;2.70;;;;;;;;;;5136451;27;20437;-63
2023/07/25 10:16:10;;;;;;;5.17;2.50;;;;;;;;;;5136373;27;20449;-63
2023/07/25 10:18:39;;;;;;;6.13;3.00;;;;;;;;;;5136398;27;20475;-64
2023/07/25 10:21:06;;;;;;;6.80;3.20;;;;;;;;;;5135404;27;20938;-63
2023/07/25 10:23:34;;;;;;;11.33;7.97;;;;;;;;;;5135937;27;20441;-64
2023/07/25 10:26:12;;;;;;;9.27;3.43;;;;;;;;;;5136238;27;20442;-63
2023/07/25 10:28:39;;;;;;;5.63;3.10;;;;;;;;;;5136035;27;20496;-64
2023/07/25 10:31:07;;;;;;;8.00;3.10;;;;;;;;;;5135790;27;20450;-64
2023/07/25 10:33:39;;;;;;;5.20;2.60;;;;;;;;;;5135785;27;20512;-63
2023/07/25 10:36:06;;;;;;;4.70;3.17;;;;;;;;;;5136148;27;20422;-64
2023/07/25 10:38:34;;;;;;;6.23;3.10;;;;;;;;;;5136508;27;20492;-63
2023/07/25 10:41:02;;;;;;;4.07;2.37;;;;;;;;;;5136828;27;20485;-64
2023/07/25 10:43:31;;;;;;;7.63;3.40;;;;;;;;;;5136078;27;20445;-63
2023/07/25 10:46:02;;;;;;;5.40;2.57;;;;;;;;;;5135872;27;20819;-64
2023/07/25 10:48:29;;;;;;;2.80;2.20;;;;;;;;;;5136277;27;20498;-64
2023/07/25 10:50:58;;;;;;;4.53;2.70;;;;;;;;;;5135766;27;20440;-64
2023/07/25 10:53:25;;;;;;;4.73;2.40;;;;;;;;;;5135707;27;20434;-64
2023/07/25 10:56:11;;;;;;;3.20;2.30;;;;;;;;;;5135478;27;20544;-64
2023/07/25 10:58:39;;;;;;;4.60;2.80;;;;;;;;;;5135459;27;20485;-64
2023/07/25 11:01:06;;;;;;;7.10;2.50;;;;;;;;;;5136456;27;20421;-64
2023/07/25 11:03:34;;;;;;;4.77;2.10;;;;;;;;;;5135455;27;20942;-63
2023/07/25 11:06:19;;;;;;;4.10;2.57;;;;;;;;;;5135496;27;20529;-63
2023/07/25 11:08:47;;;;;;;9.80;2.90;;;;;;;;;;5134893;27;20480;-64
2023/07/25 11:11:15;;;;;;;8.10;2.30;;;;;;;;;;5135272;27;20456;-64
2023/07/25 11:13:43;;;;;;;2.70;2.07;;;;;;;;;;5135360;27;20449;-64
2023/07/25 11:16:11;;;;;;;4.47;2.40;;;;;;;;;;5135749;27;20445;-64
2023/07/25 11:18:49;;;;;;;5.50;1.93;;;;;;;;;;5134910;27;20532;-64
2023/07/25 11:21:16;;;;;;;6.67;2.57;;;;;;;;;;5135301;27;20441;-64
2023/07/25 11:23:43;;;;;;;3.17;2.20;;;;;;;;;;5135121;27;20451;-63
2023/07/25 11:26:13;;;;;;;6.10;2.90;;;;;;;;;;5135484;27;20442;-64
2023/07/25 11:28:40;;;;;;;6.50;2.30;;;;;;;;;;5134695;27;20528;-64
2023/07/25 11:31:07;;;;;;;3.70;2.60;;;;;;;;;;5134210;27;20793;-66
2023/07/25 11:33:38;;;;;;;3.67;2.10;;;;;;;;;;5134704;27;20488;-71
2023/07/25 11:36:05;;;;;;;5.17;2.23;;;;;;;;;;5134609;27;20426;-66
2023/07/25 11:38:35;;;;;;;3.73;2.33;;;;;;;;;;5134573;27;20974;-66
2023/07/25 11:41:03;;;;;;;7.53;2.60;;;;;;;;;;5134525;27;20477;-66
2023/07/25 11:43:32;;;;;;;6.57;2.40;;;;;;;;;;5134455;27;20946;-66
2023/07/25 11:45:59;;;;;;;3.70;2.10;;;;;;;;;;5134418;27;20440;-67
2023/07/25 11:48:26;;;;;;;6.87;2.60;;;;;;;;;;5134608;27;20478;-66
2023/07/25 11:50:54;;;;;;;7.30;2.47;;;;;;;;;;5134258;27;20438;-66
2023/07/25 11:53:22;;;;;;;4.00;2.47;;;;;;;;;;5134084;27;20958;-67
2023/07/25 11:55:51;;;;;;;5.80;2.30;;;;;;;;;;5134032;27;20527;-67
2023/07/25 11:58:19;;;;;;;9.27;2.17;;;;;;;;;;5134143;27;20454;-67
2023/07/25 12:00:51;;;;;;;6.10;2.30;;;;;;;;;;5133783;27;20897;-67
2023/07/25 12:03:18;;;;;;;5.20;2.20;;;;;;;;;;5134607;27;20437;-67
2023/07/25 12:05:52;;;;;;;4.33;2.03;;;;;;;;;;5134495;27;20437;-67
2023/07/25 12:08:30;;;;;;;13.93;2.40;;;;;;;;;;5134927;27;20457;-66
2023/07/25 12:10:57;;;;;;;6.23;2.20;;;;;;;;;;5134408;27;20426;-66
2023/07/25 12:13:24;;;;;;;9.33;2.40;;;;;;;;;;5133782;27;20445;-66
2023/07/25 12:15:54;;;;;;;6.23;2.50;;;;;;;;;;5134685;27;20525;-66
2023/07/25 12:18:28;;;;;;;6.50;3.27;;;;;;;;;;5134017;27;20896;-66
2023/07/25 12:20:55;;;;;;;3.57;2.00;;;;;;;;;;5133987;27;20536;-67
2023/07/25 12:23:29;;;;;;;6.00;2.00;;;;;;;;;;5133785;28;20445;-67
2023/07/25 12:25:57;;;;;;;5.83;2.23;;;;;;;;;;5134055;28;20441;-67
2023/07/25 12:28:25;;;;;;;10.00;2.03;;;;;;;;;;5134042;28;20480;-67
2023/07/25 12:30:53;;;;;;;4.50;2.30;;;;;;;;;;5134438;28;20477;-68
2023/07/25 12:33:20;;;;;;;7.53;2.60;;;;;;;;;;5133592;28;20444;-67
2023/07/25 12:35:48;;;;;;;4.00;2.07;;;;;;;;;;5133843;28;20481;-67
2023/07/25 12:38:15;;;;;;;3.93;1.93;;;;;;;;;;5134120;28;20536;-67
2023/07/25 12:40:42;;;;;;;4.03;2.03;;;;;;;;;;5134756;28;20443;-67
2023/07/25 12:43:09;;;;;;;6.20;2.50;;;;;;;;;;5135783;27;20438;-67
2023/07/25 12:45:36;;;;;;;3.00;1.77;;;;;;;;;;5138216;27;20543;-67
2023/07/25 12:48:05;;;;;;;4.30;2.30;;;;;;;;;;5137693;27;20556;-67
2023/07/25 12:50:33;;;;;;;4.73;2.70;;;;;;;;;;5138105;27;20469;-66
2023/07/25 12:53:00;;;;;;;9.23;2.30;;;;;;;;;;5138019;27;20442;-67
2023/07/25 12:55:27;;;;;;;6.33;2.50;;;;;;;;;;5138353;27;20430;-67
2023/07/25 12:57:54;;;;;;;11.90;2.70;;;;;;;;;;5137749;27;20453;-66
2023/07/25 13:00:21;;;;;;;4.30;2.20;;;;;;;;;;5138213;27;20468;-67
2023/07/25 13:02:49;;;;;;;3.93;2.47;;;;;;;;;;5138081;27;20436;-67
2023/07/25 13:05:17;;;;;;;4.07;1.97;;;;;;;;;;5138370;27;20455;-67
2023/07/25 13:07:44;;;;;;;3.50;2.10;;;;;;;;;;5137565;27;20452;-67
2023/07/25 13:10:11;;;;;;;5.33;2.23;;;;;;;;;;5137741;27;20795;-67
2023/07/25 13:12:39;;;;;;;3.00;1.73;;;;;;;;;;5137643;27;20442;-66
2023/07/25 13:15:07;;;;;;;5.30;1.90;;;;;;;;;;5137422;27;20767;-66
2023/07/25 13:17:34;;;;;;;2.83;1.70;;;;;;;;;;5137500;27;20520;-66
2023/07/25 13:20:01;;;;;;;3.63;1.80;;;;;;;;;;5137379;27;20433;-68
2023/07/25 13:22:30;;;;;;;2.50;1.73;;;;;;;;;;5137532;27;20433;-67
2023/07/25 13:24:57;;;;;;;3.97;1.93;;;;;;;;;;5137139;27;20980;-66
2023/07/25 13:27:25;;;;;;;2.93;1.60;;;;;;;;;;5137271;27;20541;-67
2023/07/25 13:29:52;;;;;;;4.50;1.80;;;;;;;;;;5137276;27;20525;-67
2023/07/25 13:32:20;;;;;;;4.20;1.90;;;;;;;;;;5137361;27;20437;-67
2023/07/25 13:34:47;;;;;;;4.00;1.60;;;;;;;;;;5137456;27;20441;-65
2023/07/25 13:37:14;;;;;;;2.03;1.30;;;;;;;;;;5136756;27;20445;-76
2023/07/25 13:39:43;;;;;;;4.60;1.70;;;;;;;;;;5137281;27;20434;-67
2023/07/25 13:42:10;;;;;;;4.03;1.67;;;;;;;;;;5137603;27;20546;-69
2023/07/25 13:44:37;;;;;;;1.97;1.40;;;;;;;;;;5136627;27;21019;-65
2023/07/25 13:47:05;;;;;;;4.63;2.07;;;;;;;;;;5136898;27;20470;-66
2023/07/25 13:49:32;;;;;;;3.07;1.83;;;;;;;;;;5136956;27;20506;-66
2023/07/25 13:51:59;;;;;;;3.57;1.47;;;;;;;;;;5136799;27;20448;-66
2023/07/25 13:54:27;;;;;;;1.70;1.60;;;;;;;;;;5135276;27;20479;-66
2023/07/25 13:56:56;;;;;;;2.13;1.50;;;;;;;;;;5136420;27;20438;-66
2023/07/25 13:59:23;;;;;;;2.03;1.40;;;;;;;;;;5136637;27;20497;-65
2023/07/25 14:01:50;;;;;;;3.83;1.50;;;;;;;;;;5136607;27;20495;-65
2023/07/25 14:04:17;;;;;;;3.30;1.43;;;;;;;;;;5136579;27;20442;-66
2023/07/25 14:06:47;;;;;;;1.83;1.43;;;;;;;;;;5136785;27;20844;-65
2023/07/25 14:09:14;;;;;;;2.60;1.67;;;;;;;;;;5135956;27;20477;-66
2023/07/25 14:11:41;;;;;;;1.67;1.57;;;;;;;;;;5136482;27;20490;-69
2023/07/25 14:14:10;;;;;;;1.60;1.23;;;;;;;;;;5135984;27;20438;-65
2023/07/25 14:16:37;;;;;;;1.63;1.33;;;;;;;;;;5136056;27;20438;-65
2023/07/25 14:19:04;;;;;;;2.37;1.60;;;;;;;;;;5135798;27;20937;-67
2023/07/25 14:21:31;;;;;;;2.90;1.40;;;;;;;;;;5136513;27;20457;-67
2023/07/25 14:23:58;;;;;;;3.20;1.60;;;;;;;;;;5136144;27;20438;-67
2023/07/25 14:26:26;;;;;;;2.17;1.17;;;;;;;;;;5136071;27;20537;-66
2023/07/25 14:28:53;;;;;;;2.40;1.70;;;;;;;;;;5136123;27;20477;-67
2023/07/25 14:31:21;;;;;;;2.60;1.57;;;;;;;;;;5136124;27;20445;-66
2023/07/25 14:33:48;;;;;;;2.77;1.63;;;;;;;;;;5135493;27;20443;-68
2023/07/25 14:36:16;;;;;;;3.40;1.70;;;;;;;;;;5135898;27;20945;-66
2023/07/25 14:38:43;;;;;;;5.90;1.70;;;;;;;;;;5135685;27;20442;-66
2023/07/25 14:41:10;;;;;;;3.10;1.60;;;;;;;;;;5135427;27;20453;-65
2023/07/25 14:43:37;;;;;;;1.70;1.60;;;;;;;;;;5135509;27;20957;-66